Time;durP1;ratioP1;P1;durP2;ratioP2;P2;SDS_P1;SDS_P2;PMS_P1;PMS_P2;Temp;Humidity;BMP_temperature;BMP_pressure;BME280_temperature;BME280_humidity;BME280_pressure;Samples;Min_cycle;Max_cycle;Signal;HPM_P1;HPM_P2
2023/02/06 00:00:11;;;;;;;15.48;7.80;;;;;;;-1.71;57.90;101132.00;5075150;28;20041;-55
2023/02/06 00:02:36;;;;;;;13.50;7.82;;;;;;;-1.80;57.82;101126.81;5074921;28;20406;-55
2023/02/06 00:05:02;;;;;;;13.55;7.55;;;;;;;-1.81;58.26;101123.34;5074795;28;20136;-56
2023/02/06 00:07:29;;;;;;;13.02;7.60;;;;;;;-1.83;58.35;101121.59;5074201;28;20047;-50
2023/02/06 00:09:54;;;;;;;13.60;7.93;;;;;;;-1.78;58.09;101122.44;5074796;28;20040;-55
2023/02/06 00:12:20;;;;;;;13.82;7.68;;;;;;;-1.80;58.31;101122.47;5075238;28;20035;-57
2023/02/06 00:14:46;;;;;;;14.77;7.63;;;;;;;-1.79;58.49;101131.19;5074086;28;20051;-53
2023/02/06 00:17:11;;;;;;;14.00;8.00;;;;;;;-1.94;58.30;101095.44;5074223;28;20471;-56
2023/02/06 00:19:36;;;;;;;13.65;7.95;;;;;;;-1.79;58.46;101123.31;5074286;28;20029;-53
2023/02/06 00:22:02;;;;;;;14.55;8.15;;;;;;;-1.75;57.95;101123.28;5073795;28;20020;-54
2023/02/06 00:24:28;;;;;;;15.48;8.45;;;;;;;-1.71;58.21;101129.38;5074269;28;20024;-55
2023/02/06 00:26:53;;;;;;;14.70;7.63;;;;;;;-1.80;57.86;101122.47;5074472;28;20398;-53
2023/02/06 00:29:19;;;;;;;12.52;7.07;;;;;;;-1.86;57.66;101122.50;5074186;28;20039;-54
2023/02/06 00:31:45;;;;;;;9.90;6.47;;;;;;;-1.95;57.52;101118.19;5072544;28;20411;-56
2023/02/06 00:34:10;;;;;;;11.77;7.18;;;;;;;-1.99;58.02;101116.47;5073514;28;20200;-55
2023/02/06 00:36:36;;;;;;;12.23;7.15;;;;;;;-1.99;58.17;101119.09;5074024;28;20032;-56
2023/02/06 00:39:02;;;;;;;12.25;6.97;;;;;;;-1.98;57.95;101128.72;5074065;28;20052;-54
2023/02/06 00:41:27;;;;;;;13.13;7.55;;;;;;;-2.03;58.67;101138.38;5074148;28;20128;-52
2023/02/06 00:43:53;;;;;;;13.15;7.00;;;;;;;-2.03;58.20;101141.00;5073947;28;20116;-55
2023/02/06 00:46:19;;;;;;;11.10;6.97;;;;;;;-2.06;58.66;101133.16;5074146;28;20421;-55
2023/02/06 00:48:45;;;;;;;14.98;8.00;;;;;;;-2.03;58.57;101136.63;5073872;28;20040;-58
2023/02/06 00:51:10;;;;;;;12.02;6.75;;;;;;;-2.05;59.20;101140.16;5073702;28;20025;-60
2023/02/06 00:53:36;;;;;;;14.02;7.82;;;;;;;-2.02;58.61;101132.25;5073631;28;20040;-58
2023/02/06 00:56:02;;;;;;;13.15;7.53;;;;;;;-2.06;58.81;101144.50;5072286;28;20025;-53
2023/02/06 00:58:27;;;;;;;10.23;6.85;;;;;;;-2.29;58.08;101097.44;5073825;28;20116;-53
2023/02/06 01:00:53;;;;;;;12.48;7.45;;;;;;;-2.10;58.54;101139.31;5073568;28;20112;-55
2023/02/06 01:03:19;;;;;;;11.30;7.20;;;;;;;-2.12;58.45;101135.81;5073917;28;20060;-53
2023/02/06 01:05:44;;;;;;;11.90;6.97;;;;;;;-2.15;58.25;101135.84;5074003;28;20032;-57
2023/02/06 01:08:10;;;;;;;13.25;7.35;;;;;;;-2.20;58.63;101141.13;5072945;28;20035;-56
2023/02/06 01:10:35;;;;;;;14.82;7.70;;;;;;;-2.23;58.63;101135.91;5072385;28;20074;-56
2023/02/06 01:13:01;;;;;;;12.60;7.13;;;;;;;-2.27;58.67;101140.28;5073235;28;20453;-59
2023/02/06 01:15:27;;;;;;;12.38;6.70;;;;;;;-2.28;58.75;101137.69;5073210;28;20033;-59
2023/02/06 01:17:52;;;;;;;10.68;7.00;;;;;;;-2.28;58.29;101138.53;5073291;28;20032;-57
2023/02/06 01:20:18;;;;;;;10.80;6.53;;;;;;;-2.27;58.08;101137.66;5073541;28;20071;-57
2023/02/06 01:22:44;;;;;;;12.18;7.45;;;;;;;-2.26;58.35;101134.16;5073097;28;20354;-59
2023/02/06 01:25:09;;;;;;;12.23;7.03;;;;;;;-2.18;58.17;101141.97;5073259;28;20321;-57
2023/02/06 01:27:36;;;;;;;11.18;6.55;;;;;;;-2.17;58.31;101141.97;5073438;28;20064;-53
2023/02/06 01:30:03;;;;;;;13.75;6.93;;;;;;;-2.13;58.43;101141.97;5073266;28;20047;-57
2023/02/06 01:32:29;;;;;;;11.13;6.28;;;;;;;-2.33;57.97;101108.84;5072760;28;20123;-55
2023/02/06 01:34:55;;;;;;;12.65;7.43;;;;;;;-2.19;58.10;101142.88;5072848;28;20123;-56
2023/02/06 01:37:20;;;;;;;9.93;6.13;;;;;;;-2.21;58.64;101137.63;5073472;28;20102;-54
2023/02/06 01:39:45;;;;;;;9.93;6.30;;;;;;;-2.23;58.07;101133.28;5072873;28;20032;-54
2023/02/06 01:42:12;;;;;;;10.93;6.28;;;;;;;-2.25;58.19;101146.38;5072697;28;20128;-52
2023/02/06 01:44:38;;;;;;;10.45;6.30;;;;;;;-2.30;58.60;101132.44;5073029;28;20367;-55
2023/02/06 01:47:04;;;;;;;8.85;6.13;;;;;;;-2.30;58.53;101142.94;5073301;28;20043;-55
2023/02/06 01:49:35;;;;;;;10.55;6.38;;;;;;;-2.29;58.09;101139.44;5071754;28;20450;-52
2023/02/06 01:52:08;;;;;;;11.63;6.78;;;;;;;-2.28;58.45;101154.28;5072716;28;20032;-52
2023/02/06 01:54:34;;;;;;;11.65;6.85;;;;;;;-2.50;58.01;101120.31;5073120;28;20032;-52
2023/02/06 01:57:03;;;;;;;8.98;5.72;;;;;;;-2.35;58.55;101144.72;5071722;28;20169;-53
2023/02/06 01:59:29;;;;;;;10.65;6.57;;;;;;;-2.38;58.32;101135.09;5072119;28;20028;-55
2023/02/06 02:01:54;;;;;;;9.65;6.10;;;;;;;-2.37;58.66;101141.22;5072613;28;20047;-53
2023/02/06 02:04:23;;;;;;;10.05;5.68;;;;;;;-2.40;58.54;101136.00;5071710;28;20028;-57
2023/02/06 02:07:11;;;;;;;10.88;6.80;;;;;;;-2.28;58.53;101145.56;5073002;28;20446;-54
2023/02/06 02:09:36;;;;;;;10.88;6.45;;;;;;;-2.45;57.66;101115.03;5072324;28;20024;-53
2023/02/06 02:12:03;;;;;;;9.82;6.40;;;;;;;-2.35;58.14;101144.72;5072826;28;20024;-56
2023/02/06 02:14:29;;;;;;;10.13;5.80;;;;;;;-2.28;58.07;101156.06;5072610;28;20040;-53
2023/02/06 02:17:26;;;;;;;9.40;5.65;;;;;;;-2.25;58.04;101159.50;5072277;28;20148;-54
2023/02/06 02:20:29;;;;;;;9.10;5.35;;;;;;;-2.21;58.09;101152.50;5072170;28;20112;-55
2023/02/06 02:23:23;;;;;;;9.13;5.68;;;;;;;-2.21;58.26;101163.00;5072720;28;20129;-56
2023/02/06 02:26:00;;;;;;;8.63;5.95;;;;;;;-2.33;58.34;101159.53;5073027;28;20473;-55
2023/02/06 02:28:44;;;;;;;9.45;5.45;;;;;;;-2.25;58.78;101159.50;5072602;28;20024;-53
2023/02/06 02:31:37;;;;;;;7.57;4.85;;;;;;;-2.25;58.69;101161.28;5072201;28;20032;-53
2023/02/06 02:34:18;;;;;;;8.65;4.75;;;;;;;-2.29;57.96;101160.41;5071887;28;20040;-51
2023/02/06 02:36:58;;;;;;;8.63;5.45;;;;;;;-2.26;57.98;101178.75;5072320;28;20115;-55
2023/02/06 02:39:38;;;;;;;8.90;5.30;;;;;;;-2.29;58.17;101165.66;5072040;28;20075;-54
2023/02/06 02:42:23;;;;;;;8.68;5.40;;;;;;;-2.34;58.53;101170.06;5051971;28;20053;-57
2023/02/06 02:44:59;;;;;;;8.27;5.07;;;;;;;-2.35;58.78;101173.56;5052036;28;20083;-54
2023/02/06 02:47:29;;;;;;;7.72;4.75;;;;;;;-2.38;59.02;101178.84;5062314;28;20447;-55
2023/02/06 02:49:56;;;;;;;8.70;5.25;;;;;;;-2.42;58.59;101185.84;5072241;28;20036;-53
2023/02/06 02:52:22;;;;;;;7.32;4.78;;;;;;;-2.48;58.45;101178.88;5072679;28;20115;-52
2023/02/06 02:54:47;;;;;;;8.77;5.25;;;;;;;-2.50;59.03;101188.50;5076191;28;20112;-55
2023/02/06 02:57:21;;;;;;;7.35;4.72;;;;;;;-2.54;58.98;101178.91;5075943;28;20024;-55
2023/02/06 02:59:48;;;;;;;9.13;5.57;;;;;;;-2.58;59.01;101189.41;5076021;28;20103;-51
2023/02/06 03:02:21;;;;;;;9.05;5.20;;;;;;;-2.70;59.49;101188.59;5075608;28;20032;-51
2023/02/06 03:04:54;;;;;;;8.90;5.22;;;;;;;-2.74;59.69;101192.94;5075512;28;20443;-55
2023/02/06 03:07:32;;;;;;;8.05;4.70;;;;;;;-2.73;59.80;101191.22;5076223;28;20325;-51
2023/02/06 03:10:19;;;;;;;7.72;4.82;;;;;;;-2.74;59.49;101192.09;5075951;28;20115;-57
2023/02/06 03:13:06;;;;;;;6.07;4.18;;;;;;;-2.67;59.42;101200.78;5074828;28;20400;-54
2023/02/06 03:15:38;;;;;;;7.20;4.80;;;;;;;-2.68;58.91;101188.56;5075671;28;20051;-52
2023/02/06 03:18:30;;;;;;;8.45;5.03;;;;;;;-2.69;59.38;101189.44;5075729;28;20458;-56
2023/02/06 03:20:57;;;;;;;8.05;5.00;;;;;;;-2.78;59.57;101188.59;5075569;28;20106;-54
2023/02/06 03:23:28;;;;;;;7.45;5.00;;;;;;;-2.75;60.23;101199.06;5075335;28;20462;-55
2023/02/06 03:25:56;;;;;;;8.80;4.93;;;;;;;-2.71;60.03;101199.94;5075230;28;20043;-56
2023/02/06 03:28:42;;;;;;;8.55;5.10;;;;;;;-2.67;59.52;101195.53;5075235;28;20028;-53
2023/02/06 03:31:13;;;;;;;8.07;5.03;;;;;;;-2.72;59.71;101185.09;5075410;28;20030;-52
2023/02/06 03:33:52;;;;;;;7.70;5.10;;;;;;;-2.90;60.18;101157.19;5075415;28;20052;-51
2023/02/06 03:36:18;;;;;;;9.02;5.68;;;;;;;-2.82;60.05;101186.00;5075167;28;20115;-52
2023/02/06 03:38:47;;;;;;;9.07;5.57;;;;;;;-3.15;60.60;101130.19;5075207;28;20062;-52
2023/02/06 03:41:15;;;;;;;11.00;5.78;;;;;;;-2.80;60.10;101182.50;5075707;28;20049;-54
2023/02/06 03:43:44;;;;;;;7.57;4.82;;;;;;;-2.75;59.85;101192.97;5075061;28;20036;-55
2023/02/06 03:46:11;;;;;;;8.32;4.78;;;;;;;-2.72;59.80;101192.97;5075072;28;20029;-54
2023/02/06 03:48:44;;;;;;;7.18;4.30;;;;;;;-2.71;60.26;101183.34;5075058;28;20032;-53
2023/02/06 03:51:39;;;;;;;8.27;5.30;;;;;;;-2.66;60.07;101181.56;5075451;28;20447;-56
2023/02/06 03:54:07;;;;;;;7.80;5.07;;;;;;;-2.71;59.94;101176.34;5073935;28;20045;-57
2023/02/06 03:56:38;;;;;;;8.68;5.40;;;;;;;-2.69;60.28;101189.44;5074710;28;20450;-59
2023/02/06 03:59:04;;;;;;;8.07;5.20;;;;;;;-2.71;60.57;101181.59;5073869;28;20056;-53
2023/02/06 04:01:30;;;;;;;6.97;4.72;;;;;;;-2.96;60.07;101152.84;5075146;28;20468;-52
2023/02/06 04:03:56;;;;;;;8.13;5.43;;;;;;;-2.82;59.94;101178.13;5074210;28;20120;-55
2023/02/06 04:06:22;;;;;;;8.40;4.68;;;;;;;-2.84;60.55;101195.59;5074409;28;20131;-53
2023/02/06 04:08:47;;;;;;;8.18;5.47;;;;;;;-2.88;60.59;101179.03;5074872;28;20119;-55
2023/02/06 04:11:13;;;;;;;9.10;5.95;;;;;;;-2.96;61.07;101176.44;5075053;28;20043;-54
2023/02/06 04:13:38;;;;;;;7.00;4.78;;;;;;;-3.03;61.22;101191.28;5074882;28;20043;-51
2023/02/06 04:16:04;;;;;;;8.13;4.75;;;;;;;-3.10;61.50;101192.19;5074712;28;20025;-53
2023/02/06 04:18:29;;;;;;;6.95;4.38;;;;;;;-3.11;61.66;101186.94;5074736;28;20032;-55
2023/02/06 04:20:55;;;;;;;7.03;4.60;;;;;;;-3.10;60.81;101189.56;5074492;28;20415;-56
2023/02/06 04:23:20;;;;;;;7.10;4.45;;;;;;;-3.06;61.11;101191.31;5074761;28;20032;-52
2023/02/06 04:25:46;;;;;;;6.57;4.22;;;;;;;-3.07;61.36;101176.47;5073795;28;20021;-57
2023/02/06 04:28:12;;;;;;;7.15;4.40;;;;;;;-2.99;61.30;101180.81;5074487;28;20040;-54
2023/02/06 04:30:37;;;;;;;7.45;4.60;;;;;;;-2.89;61.41;101186.00;5074764;28;20130;-54
2023/02/06 04:33:03;;;;;;;7.30;4.70;;;;;;;-2.83;61.58;101184.25;5074290;28;20032;-53
2023/02/06 04:35:29;;;;;;;7.97;5.03;;;;;;;-2.80;61.16;101195.59;5074035;28;20451;-55
2023/02/06 04:37:54;;;;;;;8.57;4.95;;;;;;;-2.76;61.20;101194.72;5074190;28;20240;-53
2023/02/06 04:40:20;;;;;;;7.38;4.82;;;;;;;-2.73;60.88;101191.22;5073879;28;20025;-54
2023/02/06 04:42:45;;;;;;;7.88;4.82;;;;;;;-2.69;60.99;101202.56;5073904;28;20056;-53
2023/02/06 04:45:11;;;;;;;6.43;3.70;;;;;;;-2.63;60.53;101187.66;5073011;28;20044;-54
2023/02/06 04:47:37;;;;;;;7.38;5.00;;;;;;;-2.88;60.18;101158.06;5073163;28;20043;-54
2023/02/06 04:50:03;;;;;;;8.00;5.10;;;;;;;-2.79;60.53;101193.84;5069700;28;20040;-55
2023/02/06 04:52:29;;;;;;;7.05;4.80;;;;;;;-2.99;60.24;101167.69;5053725;28;20029;-52
2023/02/06 04:54:54;;;;;;;8.05;4.97;;;;;;;-2.95;60.83;101187.78;5053864;28;20501;-51
2023/02/06 04:57:19;;;;;;;6.55;4.80;;;;;;;-2.92;60.34;101204.38;5053833;28;20029;-54
2023/02/06 04:59:45;;;;;;;7.57;4.72;;;;;;;-3.06;60.33;101172.06;5053471;28;20044;-55
2023/02/06 05:02:10;;;;;;;8.25;5.30;;;;;;;-2.97;60.89;101206.13;5053773;28;20071;-57
2023/02/06 05:04:37;;;;;;;6.78;4.55;;;;;;;-2.98;60.48;101196.53;5055636;28;20040;-56
2023/02/06 05:07:03;;;;;;;9.00;5.53;;;;;;;-3.02;60.76;101181.66;5073658;28;20028;-52
2023/02/06 05:09:28;;;;;;;7.90;4.65;;;;;;;-3.03;60.07;101193.03;5073106;28;20367;-55
2023/02/06 05:11:54;;;;;;;9.43;5.30;;;;;;;-2.99;60.46;101199.16;5073616;28;20060;-54
2023/02/06 05:14:19;;;;;;;9.05;4.82;;;;;;;-2.97;60.50;101186.91;5073341;28;20123;-54
2023/02/06 05:16:45;;;;;;;8.90;4.95;;;;;;;-2.93;59.97;101193.88;5072546;28;20037;-56
2023/02/06 05:19:10;;;;;;;7.03;4.70;;;;;;;-2.92;59.69;101203.50;5073809;28;20037;-52
2023/02/06 05:21:36;;;;;;;8.02;4.90;;;;;;;-2.89;59.71;101196.50;5073530;28;20032;-55
2023/02/06 05:24:02;;;;;;;7.85;4.97;;;;;;;-2.96;59.20;101186.03;5072502;28;20111;-57
2023/02/06 05:26:27;;;;;;;8.43;5.05;;;;;;;-3.09;59.63;101169.47;5073484;28;20120;-52
2023/02/06 05:28:52;;;;;;;8.60;5.63;;;;;;;-3.18;59.14;101167.75;5073261;28;20029;-56
2023/02/06 05:31:18;;;;;;;6.97;4.63;;;;;;;-3.03;59.42;101195.66;5073085;28;20358;-54
2023/02/06 05:33:50;;;;;;;7.30;4.43;;;;;;;-2.93;59.37;101188.63;5072961;28;20044;-54
2023/02/06 05:36:16;;;;;;;6.60;4.40;;;;;;;-3.16;59.13;101152.88;5073432;28;20024;-54
2023/02/06 05:38:42;;;;;;;7.60;4.75;;;;;;;-3.03;59.05;101177.31;5072242;28;20113;-54
2023/02/06 05:41:07;;;;;;;6.88;4.40;;;;;;;-3.05;58.27;101185.19;5073117;28;20048;-54
2023/02/06 05:43:33;;;;;;;6.28;4.22;;;;;;;-3.03;58.26;101198.28;5072984;28;20043;-56
2023/02/06 05:45:59;;;;;;;7.63;4.50;;;;;;;-3.01;58.45;101196.56;5062847;28;20051;-53
2023/02/06 05:48:27;;;;;;;6.10;4.40;;;;;;;-3.11;57.84;101172.13;5062052;28;20111;-51
2023/02/06 05:50:53;;;;;;;6.93;4.43;;;;;;;-2.97;57.85;101195.66;5066646;28;20040;-55
2023/02/06 05:53:18;;;;;;;8.65;4.60;;;;;;;-2.99;57.21;101201.75;5061077;28;20051;-57
2023/02/06 05:55:44;;;;;;;8.73;5.03;;;;;;;-3.07;57.38;101194.81;5063378;28;20447;-54
2023/02/06 05:58:09;;;;;;;8.20;4.75;;;;;;;-3.14;57.78;101207.91;5062781;28;20033;-64
2023/02/06 06:00:35;;;;;;;7.65;4.65;;;;;;;-3.12;57.84;101203.53;5067316;28;20466;-58
2023/02/06 06:03:00;;;;;;;9.43;4.85;;;;;;;-3.06;57.04;101209.66;5072165;28;20032;-56
2023/02/06 06:05:25;;;;;;;8.77;4.65;;;;;;;-3.07;57.45;101213.16;5061116;28;20366;-57
2023/02/06 06:07:51;;;;;;;7.55;4.30;;;;;;;-3.06;56.94;101209.66;5058382;28;20031;-55
2023/02/06 06:10:16;;;;;;;8.50;5.03;;;;;;;-3.08;57.17;101211.41;5063600;28;20323;-54
2023/02/06 06:12:42;;;;;;;6.93;4.13;;;;;;;-3.07;56.97;101217.50;5072320;28;20064;-58
2023/02/06 06:15:08;;;;;;;6.05;4.28;;;;;;;-3.07;57.35;101212.25;5073210;28;20031;-55
2023/02/06 06:17:33;;;;;;;6.22;4.20;;;;;;;-3.06;56.67;101217.50;5069035;28;20071;-58
2023/02/06 06:19:59;;;;;;;5.30;3.80;;;;;;;-3.08;56.75;101221.88;5071945;28;20021;-55
2023/02/06 06:22:24;;;;;;;6.82;4.20;;;;;;;-3.09;57.07;101219.25;5071786;28;20032;-53
2023/02/06 06:24:49;;;;;;;7.93;4.70;;;;;;;-3.10;56.26;101213.16;5072617;28;20029;-52
2023/02/06 06:27:15;;;;;;;6.93;4.28;;;;;;;-3.07;56.52;101218.38;5071373;28;20085;-54
2023/02/06 06:29:40;;;;;;;6.30;3.80;;;;;;;-3.24;56.59;101194.84;5072535;28;20032;-58
2023/02/06 06:32:06;;;;;;;7.47;3.80;;;;;;;-3.00;56.03;101231.47;5072351;28;20156;-55
2023/02/06 06:34:31;;;;;;;5.70;4.13;;;;;;;-2.93;55.97;101234.09;5072092;28;20115;-56
2023/02/06 06:36:57;;;;;;;5.18;3.65;;;;;;;-2.88;55.58;101229.69;5072064;28;20051;-57
2023/02/06 06:39:22;;;;;;;6.43;4.07;;;;;;;-2.82;55.39;101227.94;5072304;28;20435;-55
2023/02/06 06:41:48;;;;;;;5.70;4.03;;;;;;;-2.93;55.60;101214.84;5071887;28;20049;-55
2023/02/06 06:44:13;;;;;;;6.63;4.13;;;;;;;-2.79;55.09;101228.81;5072185;28;20044;-58
2023/02/06 06:46:39;;;;;;;5.68;3.90;;;;;;;-2.86;55.18;101227.09;5072136;28;20104;-55
2023/02/06 06:49:04;;;;;;;6.32;4.07;;;;;;;-2.84;55.34;101225.34;5072224;28;20032;-58
2023/02/06 06:51:30;;;;;;;8.88;5.28;;;;;;;-2.75;55.50;101227.06;5072285;28;20043;-57
2023/02/06 06:53:56;;;;;;;7.45;5.10;;;;;;;-2.92;55.44;101203.50;5071252;28;20024;-55
2023/02/06 06:56:22;;;;;;;9.80;5.82;;;;;;;-2.75;55.12;101243.66;5070110;28;20054;-58
2023/02/06 06:58:49;;;;;;;9.20;5.80;;;;;;;-2.80;55.88;101227.06;5072223;28;20165;-59
2023/02/06 07:01:14;;;;;;;8.93;5.88;;;;;;;-2.76;56.29;101234.03;5072102;28;20120;-57
2023/02/06 07:03:43;;;;;;;10.73;6.15;;;;;;;-2.76;55.79;101239.28;5072289;28;20107;-58
2023/02/06 07:06:10;;;;;;;9.82;6.47;;;;;;;-2.78;56.31;101229.66;5072752;28;20037;-54
2023/02/06 07:08:40;;;;;;;10.40;5.65;;;;;;;-2.78;56.06;101217.44;5065666;28;20033;-54
2023/02/06 07:11:09;;;;;;;9.00;5.38;;;;;;;-2.77;56.16;101211.31;5052056;28;20047;-55
2023/02/06 07:13:34;;;;;;;10.38;5.45;;;;;;;-2.63;56.15;101221.75;5052055;28;20033;-53
2023/02/06 07:16:00;;;;;;;11.60;5.45;;;;;;;-2.51;56.22;101228.72;5051670;28;20095;-54
2023/02/06 07:18:25;;;;;;;8.60;5.28;;;;;;;-2.45;56.01;101218.19;5051736;28;20112;-57
2023/02/06 07:20:51;;;;;;;16.48;5.55;;;;;;;-2.32;55.58;101229.50;5051695;28;20119;-52
2023/02/06 07:23:16;;;;;;;9.77;5.28;;;;;;;-2.23;55.42;101232.97;5058481;28;20508;-56
2023/02/06 07:25:41;;;;;;;10.27;5.13;;;;;;;-2.17;54.98;101228.56;5072297;28;20399;-55
2023/02/06 07:28:07;;;;;;;7.90;5.20;;;;;;;-2.13;55.45;101224.16;5071735;28;20028;-55
2023/02/06 07:30:33;;;;;;;13.95;5.95;;;;;;;-2.15;55.36;101219.81;5072200;28;20055;-55
2023/02/06 07:32:58;;;;;;;8.20;5.40;;;;;;;-2.02;54.99;101234.59;5071882;28;20082;-53
2023/02/06 07:35:24;;;;;;;8.40;4.90;;;;;;;-1.98;55.43;101228.44;5071387;28;20040;-56
2023/02/06 07:37:52;;;;;;;8.60;5.43;;;;;;;-1.93;55.14;101225.81;5071771;28;20064;-55
2023/02/06 07:40:18;;;;;;;8.57;5.38;;;;;;;-1.89;55.75;101217.03;5075450;28;20115;-55
2023/02/06 07:42:43;;;;;;;11.63;6.00;;;;;;;-1.85;55.16;101225.75;5076051;28;20131;-60
2023/02/06 07:45:09;;;;;;;7.90;5.32;;;;;;;-1.82;54.89;101225.75;5075063;28;20037;-57
2023/02/06 07:47:34;;;;;;;9.13;5.55;;;;;;;-1.81;55.05;101235.34;5074759;28;20029;-56
2023/02/06 07:50:00;;;;;;;7.22;5.00;;;;;;;-1.85;55.54;101221.38;5075123;28;20455;-55
2023/02/06 07:52:25;;;;;;;9.48;5.97;;;;;;;-1.81;55.79;101240.59;5075549;28;20024;-54
2023/02/06 07:54:51;;;;;;;8.38;5.72;;;;;;;-1.79;55.50;101228.34;5074916;28;20043;-56
2023/02/06 07:57:16;;;;;;;9.18;5.65;;;;;;;-1.85;55.78;101231.88;5074790;28;20108;-60
2023/02/06 07:59:42;;;;;;;12.75;5.93;;;;;;;-1.90;55.42;101233.66;5074596;28;20060;-58
2023/02/06 08:02:10;;;;;;;9.63;5.78;;;;;;;-2.00;55.70;101237.22;5075249;28;20021;-56
2023/02/06 08:04:35;;;;;;;8.80;5.68;;;;;;;-2.06;55.79;101236.38;5074985;28;20049;-55
2023/02/06 08:07:03;;;;;;;8.18;5.97;;;;;;;-2.02;56.44;101240.75;5070211;28;20028;-58
2023/02/06 08:09:28;;;;;;;10.40;6.07;;;;;;;-2.02;56.44;101246.00;5066786;28;20371;-57
2023/02/06 08:11:54;;;;;;;8.57;5.93;;;;;;;-1.96;56.05;101239.81;5071166;28;20036;-58
2023/02/06 08:14:19;;;;;;;8.38;6.00;;;;;;;-1.97;55.67;101242.47;5066558;28;20028;-56
2023/02/06 08:16:45;;;;;;;10.48;6.40;;;;;;;-1.97;55.97;101238.06;5074750;28;20072;-54
2023/02/06 08:19:11;;;;;;;15.43;6.38;;;;;;;-1.91;56.42;101238.06;5073792;28;20032;-56
2023/02/06 08:21:37;;;;;;;11.05;6.50;;;;;;;-1.86;55.86;101237.16;5074822;28;20033;-53
2023/02/06 08:24:03;;;;;;;10.65;6.00;;;;;;;-1.87;56.13;101231.00;5072132;28;20027;-60
2023/02/06 08:26:29;;;;;;;12.65;6.65;;;;;;;-1.80;56.28;101244.97;5066295;28;20037;-56
2023/02/06 08:28:56;;;;;;;9.52;6.15;;;;;;;-1.78;55.66;101245.84;5064775;28;20138;-58
2023/02/06 08:31:27;;;;;;;10.23;6.03;;;;;;;-1.75;55.89;101245.81;5063466;28;20036;-57
2023/02/06 08:33:54;;;;;;;9.35;6.30;;;;;;;-1.83;55.57;101231.88;5062025;28;20036;-58
2023/02/06 08:36:21;;;;;;;9.80;5.60;;;;;;;-1.76;55.37;101238.81;5065256;28;20093;-54
2023/02/06 08:38:47;;;;;;;9.20;6.03;;;;;;;-1.80;55.68;101239.72;5062735;28;20059;-57
2023/02/06 08:41:19;;;;;;;8.85;5.85;;;;;;;-1.77;55.61;101242.31;5067234;28;20378;-57
2023/02/06 08:43:45;;;;;;;8.52;5.63;;;;;;;-1.78;55.87;101237.97;5073683;28;20082;-56
2023/02/06 08:46:11;;;;;;;8.77;6.13;;;;;;;-1.77;55.45;101232.72;5074184;28;20032;-54
2023/02/06 08:48:36;;;;;;;8.93;6.18;;;;;;;-1.91;55.50;101203.03;5073816;28;20033;-54
2023/02/06 08:51:07;;;;;;;10.13;6.20;;;;;;;-1.72;56.16;101240.53;5072404;28;20416;-53
2023/02/06 08:53:33;;;;;;;8.60;5.78;;;;;;;-1.83;54.92;101242.38;5064044;28;20024;-58
2023/02/06 08:56:01;;;;;;;8.27;5.90;;;;;;;-1.89;55.69;101238.91;5067032;28;20029;-53
2023/02/06 08:58:27;;;;;;;9.30;5.88;;;;;;;-2.14;55.84;101211.94;5073677;28;20056;-54
2023/02/06 09:00:52;;;;;;;10.77;5.60;;;;;;;-1.94;56.41;101245.91;5069545;28;20455;-59
2023/02/06 09:03:18;;;;;;;11.52;5.75;;;;;;;-1.91;56.11;101242.41;5071717;28;20093;-58
2023/02/06 09:05:43;;;;;;;10.95;5.90;;;;;;;-1.84;56.01;101251.13;5058195;28;20061;-55
2023/02/06 09:08:09;;;;;;;8.98;6.38;;;;;;;-1.83;56.13;101247.63;5055968;28;20082;-55
2023/02/06 09:10:34;;;;;;;8.20;6.05;;;;;;;-1.82;56.11;101252.00;5068949;28;20036;-54
2023/02/06 09:12:59;;;;;;;8.27;5.70;;;;;;;-1.82;55.81;101255.47;5059441;28;20083;-57
2023/02/06 09:15:25;;;;;;;8.40;5.65;;;;;;;-1.83;55.35;101252.88;5063495;28;20130;-55
2023/02/06 09:17:50;;;;;;;9.20;5.82;;;;;;;-1.87;56.03;101254.63;5068451;28;20021;-53
2023/02/06 09:20:16;;;;;;;8.75;5.97;;;;;;;-1.89;55.92;101243.28;5065249;28;20200;-55
2023/02/06 09:22:43;;;;;;;7.90;5.57;;;;;;;-1.83;56.23;101250.25;5063070;28;20584;-55
2023/02/06 09:25:09;;;;;;;10.32;5.53;;;;;;;-1.84;55.76;101248.50;5061596;28;20089;-54
2023/02/06 09:27:35;;;;;;;8.35;5.90;;;;;;;-1.81;55.39;101266.88;5063282;28;20757;-56
2023/02/06 09:30:00;;;;;;;8.32;5.18;;;;;;;-1.83;55.71;101263.38;5051829;28;20033;-54
2023/02/06 09:32:26;;;;;;;10.25;5.90;;;;;;;-1.77;55.59;101252.84;5069169;28;20028;-54
2023/02/06 09:34:51;;;;;;;9.15;5.38;;;;;;;-1.92;55.81;101204.81;5068559;28;20037;-55
2023/02/06 09:37:17;;;;;;;7.60;6.07;;;;;;;-1.66;54.83;101245.78;5071745;28;20029;-55
2023/02/06 09:39:42;;;;;;;7.03;5.53;;;;;;;-1.63;55.09;101240.50;5063982;28;20037;-56
2023/02/06 09:42:16;;;;;;;8.52;5.85;;;;;;;-1.56;55.03;101243.94;5062722;28;20052;-56
2023/02/06 09:44:47;;;;;;;6.53;4.40;;;;;;;-1.48;54.34;101239.50;5062347;28;20430;-56
2023/02/06 09:47:19;;;;;;;10.02;5.70;;;;;;;-1.53;54.48;101235.16;5063579;28;20033;-59
2023/02/06 09:50:04;;;;;;;8.48;5.13;;;;;;;-1.49;55.00;101243.00;5065548;28;20058;-55
2023/02/06 09:52:35;;;;;;;10.10;5.43;;;;;;;-1.49;54.48;101243.00;5060804;28;20052;-58
2023/02/06 09:55:09;;;;;;;8.88;5.60;;;;;;;-1.50;54.96;101243.00;5064642;28;20024;-57
2023/02/06 09:57:40;;;;;;;8.73;5.80;;;;;;;-1.45;54.35;101254.34;5061124;28;20090;-56
2023/02/06 10:00:30;;;;;;;10.27;6.22;;;;;;;-1.40;54.80;101249.94;5057492;28;20377;-60
2023/02/06 10:03:20;;;;;;;9.20;6.07;;;;;;;-1.39;54.56;101249.06;5063890;28;20055;-58
2023/02/06 10:05:48;;;;;;;10.73;6.10;;;;;;;-1.37;54.00;101252.56;5070586;28;20064;-52
2023/02/06 10:08:37;;;;;;;8.18;5.35;;;;;;;-1.37;54.31;101257.81;5059143;28;20041;-54
2023/02/06 10:11:20;;;;;;;9.07;5.82;;;;;;;-1.32;54.41;101256.00;5059116;28;20024;-53
2023/02/06 10:14:00;;;;;;;8.35;5.55;;;;;;;-1.33;54.65;101262.16;5066595;28;20017;-53
2023/02/06 10:16:46;;;;;;;8.07;4.97;;;;;;;-1.30;54.52;101251.59;5059690;28;20024;-59
2023/02/06 10:19:15;;;;;;;;;;;;;;;-0.98;54.41;101246.06;5068137;28;20036;-56
2023/02/06 10:21:50;;;;;;;10.50;5.80;;;;;;;-1.15;53.97;101257.63;5064392;28;19912;-52
2023/02/06 10:24:31;;;;;;;8.52;4.88;;;;;;;-1.25;54.04;101248.94;5052983;28;20532;-61
2023/02/06 10:27:00;;;;;;;9.43;5.78;;;;;;;-1.34;53.99;101242.00;5061689;28;20428;-53
2023/02/06 10:29:28;;;;;;;8.27;5.80;;;;;;;-1.28;53.91;101258.59;5061955;28;20040;-56
2023/02/06 10:32:26;;;;;;;8.55;6.00;;;;;;;-1.27;54.29;101249.84;5062266;28;20040;-58
2023/02/06 10:35:04;;;;;;;7.18;5.38;;;;;;;-1.48;54.53;101210.59;5064067;28;20032;-53
2023/02/06 10:37:46;;;;;;;9.25;5.43;;;;;;;-1.24;54.63;101248.06;5065492;28;20024;-54
2023/02/06 10:40:11;;;;;;;9.10;5.82;;;;;;;-1.30;54.35;101254.22;5053505;28;20155;-55
2023/02/06 10:42:57;;;;;;;11.05;6.00;;;;;;;-1.24;54.60;101252.44;5058041;28;20137;-57
2023/02/06 10:45:30;;;;;;;8.20;5.53;;;;;;;-1.28;54.02;101261.22;5061482;28;20045;-54
2023/02/06 10:48:04;;;;;;;12.63;6.32;;;;;;;-1.40;53.84;101247.31;5062775;28;20439;-56
2023/02/06 10:50:54;;;;;;;9.00;6.32;;;;;;;-1.42;53.76;101242.94;5063147;28;20035;-52
2023/02/06 10:53:27;;;;;;;8.10;5.85;;;;;;;-1.53;54.02;101243.94;5056123;28;20039;-57
2023/02/06 10:56:08;;;;;;;8.73;6.22;;;;;;;-1.77;54.37;101209.09;5049900;28;20039;-56
2023/02/06 10:59:00;;;;;;;10.13;6.53;;;;;;;-1.70;54.09;101216.91;5051745;28;20125;-57
2023/02/06 11:01:30;;;;;;;10.05;6.13;;;;;;;-1.52;54.31;101239.53;5051074;28;20067;-57
2023/02/06 11:04:09;;;;;;;8.45;6.05;;;;;;;-1.48;53.83;101244.75;5052946;28;20103;-56
2023/02/06 11:06:35;;;;;;;10.65;5.38;;;;;;;-1.53;53.87;101235.16;5064464;28;20075;-57
2023/02/06 11:09:00;;;;;;;8.80;5.85;;;;;;;-1.60;53.77;101234.31;5058696;28;20025;-59
2023/02/06 11:11:28;;;;;;;8.73;6.05;;;;;;;-1.70;53.11;101237.91;5063242;28;20442;-56
2023/02/06 11:14:13;;;;;;;9.20;5.80;;;;;;;-1.78;53.81;101244.09;5065182;28;20486;-52
2023/02/06 11:16:40;;;;;;;7.70;5.70;;;;;;;-1.92;54.22;101238.94;5064345;28;20081;-55
2023/02/06 11:19:24;;;;;;;9.55;6.32;;;;;;;-1.89;55.10;101228.41;5064825;28;21221;-56
2023/02/06 11:22:15;;;;;;;10.45;6.43;;;;;;;-1.76;55.12;101233.56;5079950;28;20355;-63
2023/02/06 11:25:02;;;;;;;11.38;6.20;;;;;;;-1.65;54.52;101231.75;5062882;28;20086;-62
2023/02/06 11:27:32;;;;;;;10.43;6.57;;;;;;;-1.73;54.29;101229.19;5053857;28;20377;-64
2023/02/06 11:30:06;;;;;;;8.82;5.72;;;;;;;-1.69;53.72;101227.38;5074237;28;20036;-60